Flight Track Log - Related Links

Times and Time Zones

All times are in EDT time to prevent confusion due to time zone crossing. See the CHQ5022 flight status page for this flight to view local times or setup timezone preferences in your user account.

Time Position Orientation Groundspeed Altitude Reporting Facility
EDT Latitude Longitude Course Direction KTS MPH feet Rate Location/Type
Sun 12:02:14 PM 41.9500 -87.9167 180° South 169 194 1,600  Level Chicago TRACON
Sun 12:03:08 PM 41.9000 -87.9167 180° South 202 232 3,600 1,897 Climbing Chicago TRACON
Sun 12:04:00 PM 41.6733 -87.7206 166° South  Level Estimated
Sun 12:04:30 PM 41.8139 -87.8933 169° South 235 270 5,900  Level Chicago Center
Sun 12:05:00 PM 41.5704 -87.6590 167° South  Level Estimated
Sun 12:05:32 PM 41.7411 -87.8597 161° South 271 312 8,400  Level Chicago Center
Sun 12:06:00 PM 41.4619 -87.6997 196° South  Level FlightAware Approximate
Sun 12:06:33 PM 41.6639 -87.8281 163° South 287 330 10,600  Level Chicago Center
Sun 12:07:00 PM 41.3600 -87.6356 180° South  Level Estimated
Sun 12:07:35 PM 41.5675 -87.7869 162° South 300 345 13,200  Level Chicago Center
Sun 12:08:37 PM 41.4819 -87.7519 163° South 314 361 14,700 1,268 Climbing Chicago Center
Sun 12:09:38 PM 41.3858 -87.7242 168° South 353 406 15,800 1,024 Climbing Chicago Center
Sun 12:10:40 PM 41.2819 -87.7267 181° South 372 428 16,800 968 Climbing Chicago Center
Sun 12:11:42 PM 41.1733 -87.7250 179° South 384 442 17,800 968 Climbing Chicago Center
Sun 12:12:44 PM 41.0639 -87.7092 174° South 395 455 18,800 976 Climbing Chicago Center
Sun 12:13:45 PM 40.9500 -87.6917 173° South 407 468 19,800 1,024 Climbing Chicago Center
Sun 12:14:47 PM 40.8356 -87.6758 174° South 414 476 20,900 1,103 Climbing Chicago Center
Sun 12:16:01 PM 40.6767 -87.6319 168° South 420 483 22,300 926 Climbing Chicago Center
Sun 12:17:03 PM 40.5728 -87.5558 151° Southeast 426 490 23,000 339 Climbing Chicago Center
Sun 12:18:05 PM 40.4633 -87.4811 153° Southeast 441 507 23,000  Level Chicago Center
Sun 12:19:06 PM 40.3542 -87.4075 153° Southeast 449 517 23,000  Level Chicago Center
Sun 12:20:08 PM 40.2417 -87.3308 153° Southeast 452 520 23,000  Level Chicago Center
Sun 12:21:10 PM 40.1128 -87.2389 151° Southeast 451 519 23,000  Level Chicago Center
Sun 12:21:49 PM 40.0544 -87.2008 153° Southeast 454 522 23,000  Level Indianapolis Center
Sun 12:22:50 PM 39.9236 -87.1133 153° Southeast 452 520 23,000  Level Indianapolis Center
Sun 12:23:52 PM 39.8128 -87.0361 152° Southeast 451 519 23,000 -537 Level Indianapolis Center
Sun 12:24:53 PM 39.7078 -86.9653 153° Southeast 430 495 21,900 -1,171 Descending Indianapolis Center
Sun 12:25:55 PM 39.6064 -86.8958 152° Southeast 414 476 20,600 -1,317 Descending Indianapolis Center
Sun 12:26:56 PM 39.5042 -86.8281 153° Southeast 412 474 19,200 -1,415 Descending Indianapolis Center
Sun 12:27:58 PM 39.4056 -86.7614 152° Southeast 404 465 17,700 -1,366 Descending Indianapolis Center
Sun 12:28:59 PM 39.3083 -86.6967 153° Southeast 395 455 16,400 -1,317 Descending Indianapolis Center
Sun 12:30:01 PM 39.2147 -86.6325 152° Southeast 383 441 15,000 -1,366 Descending Indianapolis Center
Sun 12:31:02 PM 39.1078 -86.5628 153° Southeast 372 428 13,600 -1,366 Descending Indianapolis Center
Sun 12:32:04 PM 39.0178 -86.5028 153° Southeast 366 421 12,200 -1,161 Descending Indianapolis Center
Sun 12:33:06 PM 38.9283 -86.4439 153° Southeast 362 417 11,200 -585 Descending Indianapolis Center
Sun 12:34:07 PM 38.8431 -86.3856 152° Southeast 355 409 11,000 -390 Descending Indianapolis Center
Sun 12:35:09 PM 38.7669 -86.3197 146° Southeast 336 387 10,400 -968 Descending Indianapolis Center
Sun 12:36:11 PM 38.7100 -86.2442 134° Southeast 299 344 9,000 -1,610 Descending Indianapolis Center
Sun 12:37:12 PM 38.6572 -86.1700 132° Southeast 285 328 7,100 -1,415 Descending Indianapolis Center
Sun 12:38:14 PM 38.6075 -86.1031 134° Southeast 267 307 6,100 -532 Descending Indianapolis Center
Sun 12:39:16 PM 38.5575 -86.0381 135° Southeast 257 296 6,000 -146 Descending Indianapolis Center
Sun 12:40:17 PM 38.4986 -85.9586 133° Southeast 255 293 5,800 -634 Descending Indianapolis Center
Sun 12:41:19 PM 38.4536 -85.8972 133° Southeast 242 278 4,700 -1,016 Descending Indianapolis Center
Sun 12:42:21 PM 38.4067 -85.8350 134° Southeast 241 277 3,700 -823 Descending Indianapolis Center
Sun 12:43:23 PM 38.3600 -85.7906 143° Southeast 220 253 3,000 -341 Descending Indianapolis Center
Sun 12:44:24 PM 38.3106 -85.7731 164° South 196 226 3,000 -146 Level Indianapolis Center
Sun 12:45:26 PM 38.2683 -85.7606 167° South 188 216 2,700 -290 Descending Indianapolis Center

Login

Don't have an account? Register now (free) for customized features, flight alerts, and more!